Time;durP1;ratioP1;P1;durP2;ratioP2;P2;SDS_P1;SDS_P2;PMS_P1;PMS_P2;Temp;Humidity;BMP_temperature;BMP_pressure;BME280_temperature;BME280_humidity;BME280_pressure;Samples;Min_cycle;Max_cycle;Signal;HPM_P1;HPM_P2
2021/10/13 00:01:08;;;;;;;;;;;;;;;18.98;74.89;100382.00;5062090;28;1986;-45
2021/10/13 00:03:34;;;;;;;;;;;;;;;19.01;75.30;100386.19;5070006;28;1645;-43
2021/10/13 00:06:01;;;;;;;;;;;;;;;18.99;74.43;100386.34;5061269;28;1851;-45
2021/10/13 00:08:27;;;;;;;;;;;;;;;18.99;75.21;100374.78;5063149;28;1523;-44
2021/10/13 00:10:54;;;;;;;;;;;;;;;18.97;75.12;100385.63;5066783;28;1557;-43
2021/10/13 00:13:20;;;;;;;;;;;;;;;18.97;75.13;100388.31;5074262;28;2074;-44
2021/10/13 00:15:47;;;;;;;;;;;;;;;18.97;73.91;100382.13;5065139;28;1928;-44
2021/10/13 00:18:14;;;;;;;;;;;;;;;19.00;74.03;100379.13;5066205;28;1642;-45
2021/10/13 00:20:41;;;;;;;;;;;;;;;18.98;73.90;100383.78;5070618;28;1498;-44
2021/10/13 00:23:07;;;;;;;;;;;;;;;18.95;75.11;100384.09;5067140;28;1636;-44
2021/10/13 00:25:34;;;;;;;;;;;;;;;18.93;74.37;100380.72;5058920;28;1941;-44
2021/10/13 00:28:00;;;;;;;;;;;;;;;18.91;74.61;100370.16;5070467;28;1615;-44
2021/10/13 00:30:27;;;;;;;;;;;;;;;18.96;73.94;100375.94;5061909;28;1787;-45
2021/10/13 00:32:54;;;;;;;;;;;;;;;18.90;74.27;100379.19;5072072;28;1761;-46
2021/10/13 00:35:22;;;;;;;;;;;;;;;18.92;75.11;100374.53;5063763;28;1910;-44
2021/10/13 00:37:48;;;;;;;;;;;;;;;18.93;75.14;100378.03;5069598;28;1540;-44
2021/10/13 00:40:15;;;;;;;;;;;;;;;18.93;74.06;100376.19;5062711;28;1664;-45
2021/10/13 00:42:41;;;;;;;;;;;;;;;18.93;74.03;100380.72;5065998;28;1404;-44
2021/10/13 00:45:08;;;;;;;;;;;;;;;18.95;75.05;100379.59;5062980;28;1486;-44
2021/10/13 00:47:35;;;;;;;;;;;;;;;18.92;74.34;100379.88;5067595;28;1643;-45
2021/10/13 00:50:01;;;;;;;;;;;;;;;18.93;74.73;100378.88;5063163;28;1046;-44
2021/10/13 00:52:30;;;;;;;;;;;;;;;18.93;74.67;100375.38;5070337;28;2012;-44
2021/10/13 00:54:56;;;;;;;;;;;;;;;18.92;74.87;100385.25;5061843;28;1989;-44
2021/10/13 00:57:23;;;;;;;;;;;;;;;18.92;74.01;100376.34;5071176;28;1685;-44
2021/10/13 00:59:49;;;;;;;;;;;;;;;18.90;74.03;100371.16;5062613;28;1753;-44
2021/10/13 01:02:24;;;;;;;;;;;;;;;18.91;73.92;100375.50;5064183;28;1767;-44
2021/10/13 01:04:57;;;;;;;;;;;;;;;18.90;74.39;100371.16;5064330;28;1204;-45
2021/10/13 01:07:30;;;;;;;;;;;;;;;18.87;74.93;100360.72;5056237;28;1988;-47
2021/10/13 01:10:00;;;;;;;;;;;;;;;18.87;74.05;100369.59;5062703;28;1598;-44
2021/10/13 01:12:31;;;;;;;;;;;;;;;18.87;74.22;100382.13;5061213;28;1681;-44
2021/10/13 01:15:01;;;;;;;;;;;;;;;18.89;74.35;100382.84;5063300;28;1906;-44
2021/10/13 01:17:34;;;;;;;;;;;;;;;18.88;73.75;100375.81;5062975;28;1756;-45
2021/10/13 01:20:02;;;;;;;;;;;;;;;18.84;74.66;100361.84;5062299;28;1023;-45
2021/10/13 01:22:45;;;;;;;;;;;;;;;18.89;74.28;100380.16;5069642;28;1924;-45
2021/10/13 01:25:18;;;;;;;;;;;;;;;18.85;74.07;100379.59;5061145;28;1508;-44
2021/10/13 01:27:53;;;;;;;;;;;;;;;18.85;74.22;100378.75;5061136;28;1687;-44
2021/10/13 01:30:21;;;;;;;;;;;;;;;18.85;73.90;100384.13;5062767;28;1745;-45
2021/10/13 01:32:51;;;;;;;;;;;;;;;18.85;74.41;100389.47;5069647;28;1748;-44
2021/10/13 01:35:19;;;;;;;;;;;;;;;18.84;73.76;100374.38;5065058;28;2006;-44
2021/10/13 01:37:48;;;;;;;;;;;;;;;18.83;73.86;100383.41;5068577;28;1921;-44
2021/10/13 01:40:16;;;;;;;;;;;;;;;18.83;73.96;100386.09;5061532;28;1584;-44
2021/10/13 01:42:44;;;;;;;;;;;;;;;18.85;73.72;100381.44;5060166;28;1324;-44
2021/10/13 01:45:13;;;;;;;;;;;;;;;18.85;74.51;100387.63;5060180;28;1460;-46
2021/10/13 01:47:40;;;;;;;;;;;;;;;18.87;73.66;100398.22;5061986;28;1874;-44
2021/10/13 01:50:07;;;;;;;;;;;;;;;18.85;74.90;100386.81;5062764;28;1066;-45
2021/10/13 01:52:34;;;;;;;;;;;;;;;18.88;74.00;100391.88;5068666;28;1877;-44
2021/10/13 01:55:02;;;;;;;;;;;;;;;18.85;74.84;100389.47;5060411;28;1914;-44
2021/10/13 01:57:29;;;;;;;;;;;;;;;18.84;74.71;100403.84;5060376;28;1585;-44
2021/10/13 01:59:58;;;;;;;;;;;;;;;18.85;73.70;100397.53;5062087;28;1960;-45
2021/10/13 02:12:16;;;;;;;;;;;;;;;18.86;74.76;100404.56;4996553;28;1333;-86
2021/10/13 02:14:43;;;;;;;;;;;;;;;18.81;74.28;100396.94;4996608;28;1910;-87
2021/10/13 02:17:11;;;;;;;;;;;;;;;18.85;74.24;100405.56;4997384;28;1554;-88
2021/10/13 02:19:40;;;;;;;;;;;;;;;18.84;73.94;100410.06;4982500;28;1207;-87
2021/10/13 02:22:10;;;;;;;;;;;;;;;18.79;74.68;100406.97;4997735;28;1757;-85
2021/10/13 02:24:46;;;;;;;;;;;;;;;18.83;73.79;100396.81;4987525;28;1420;-87
2021/10/13 02:27:38;;;;;;;;;;;;;;;18.82;74.65;100417.41;4983432;28;1590;-86
2021/10/13 02:30:16;;;;;;;;;;;;;;;18.82;74.51;100413.88;4986933;28;1769;-85
2021/10/13 02:32:44;;;;;;;;;;;;;;;18.84;74.36;100406.53;4997501;28;1836;-86
2021/10/13 02:35:13;;;;;;;;;;;;;;;19.04;74.05;100420.78;4997234;28;1899;-86
2021/10/13 02:37:41;;;;;;;;;;;;;;;19.33;73.35;100419.84;4996833;28;1781;-86
2021/10/13 02:40:09;;;;;;;;;;;;;;;19.26;73.13;100419.59;4977759;28;1027;-88
2021/10/13 02:42:36;;;;;;;;;;;;;;;19.35;73.11;100417.84;4985694;28;1467;-88
2021/10/13 02:45:03;;;;;;;;;;;;;;;19.46;72.30;100421.19;4990714;28;1536;-87
2021/10/13 02:47:33;;;;;;;;;;;;;;;19.60;72.93;100427.91;4983459;28;1714;-86
2021/10/13 02:50:02;;;;;;;;;;;;;;;19.65;71.89;100430.16;4984368;28;1028;-86
2021/10/13 02:52:32;;;;;;;;;;;;;;;19.66;71.88;100416.59;4981570;28;1586;-85
2021/10/13 02:55:00;;;;;;;;;;;;;;;19.71;71.31;100412.63;4994663;28;1906;-86
2021/10/13 02:57:33;;;;;;;;;;;;;;;19.76;71.46;100415.75;4996223;28;1749;-86
2021/10/13 03:00:02;;;;;;;;;;;;;;;19.83;71.12;100423.03;4995105;28;1796;-87
2021/10/13 03:02:33;;;;;;;;;;;;;;;19.84;72.12;100430.09;4979145;28;1503;-86
2021/10/13 03:05:02;;;;;;;;;;;;;;;19.84;71.06;100429.25;4992547;28;1582;-88
2021/10/13 03:07:33;;;;;;;;;;;;;;;19.82;71.24;100423.19;4986374;28;1742;-86
2021/10/13 03:10:01;;;;;;;;;;;;;;;19.79;71.72;100416.25;4987911;28;1415;-85
2021/10/13 03:12:30;;;;;;;;;;;;;;;19.88;71.31;100427.13;4983483;28;1455;-86
2021/10/13 03:14:59;;;;;;;;;;;;;;;19.86;71.89;100425.41;4988996;28;1911;-85
2021/10/13 03:17:26;;;;;;;;;;;;;;;19.90;71.43;100433.19;4992988;28;1023;-85
2021/10/13 03:19:54;;;;;;;;;;;;;;;19.91;72.20;100426.81;4992234;28;1028;-86
2021/10/13 03:22:23;;;;;;;;;;;;;;;19.89;71.23;100423.44;4993791;28;1036;-87
2021/10/13 03:24:50;;;;;;;;;;;;;;;19.89;72.08;100426.13;4986083;28;1446;-85
2021/10/13 03:27:17;;;;;;;;;;;;;;;19.86;71.22;100422.72;4985606;28;992;-85
2021/10/13 03:29:43;;;;;;;;;;;;;;;19.92;71.53;100428.50;4994113;28;1662;-87
2021/10/13 03:32:11;;;;;;;;;;;;;;;19.96;70.88;100429.91;4978531;28;1739;-89
2021/10/13 03:34:40;;;;;;;;;;;;;;;20.04;71.55;100432.66;4989262;28;1967;-86
2021/10/13 03:37:06;;;;;;;;;;;;;;;20.01;70.92;100424.91;4996961;28;1349;-86
2021/10/13 03:39:34;;;;;;;;;;;;;;;19.98;70.99;100430.59;4996804;28;1548;-86
2021/10/13 03:42:01;;;;;;;;;;;;;;;20.02;70.71;100429.28;4991556;28;1319;-85
2021/10/13 03:44:28;;;;;;;;;;;;;;;19.99;71.78;100429.59;4990540;28;1505;-86
2021/10/13 03:46:54;;;;;;;;;;;;;;;19.99;71.27;100421.53;4993570;28;1708;-85
2021/10/13 03:49:21;;;;;;;;;;;;;;;20.05;71.75;100424.47;4988166;28;1590;-86
2021/10/13 03:51:47;;;;;;;;;;;;;;;20.03;71.52;100428.28;4979597;28;1728;-86
2021/10/13 03:54:14;;;;;;;;;;;;;;;20.04;71.75;100424.63;4989873;28;1271;-88
2021/10/13 03:56:42;;;;;;;;;;;;;;;19.91;72.08;100426.81;4987814;28;1975;-86
2021/10/13 03:59:13;;;;;;;;;;;;;;;19.72;71.53;100428.59;4995621;28;1352;-86
2021/10/13 04:01:41;;;;;;;;;;;;;;;19.64;71.51;100425.78;4994003;28;1094;-88
2021/10/13 04:04:08;;;;;;;;;;;;;;;19.60;72.51;100432.44;4987957;28;1498;-86
2021/10/13 04:06:35;;;;;;;;;;;;;;;19.56;72.12;100429.22;4996153;28;984;-86
2021/10/13 04:09:02;;;;;;;;;;;;;;;19.52;71.96;100430.50;4996112;28;1774;-86
2021/10/13 04:11:29;;;;;;;;;;;;;;;19.53;72.57;100432.16;4986506;28;1421;-85
2021/10/13 04:13:57;;;;;;;;;;;;;;;19.48;71.84;100427.25;4992183;28;1734;-88
2021/10/13 04:16:23;;;;;;;;;;;;;;;19.42;73.23;100425.16;4998280;28;1910;-86
2021/10/13 04:18:50;;;;;;;;;;;;;;;19.44;72.76;100433.91;4990578;28;1298;-88
2021/10/13 04:21:17;;;;;;;;;;;;;;;19.38;73.54;100439.84;4991562;28;1427;-86
2021/10/13 04:23:44;;;;;;;;;;;;;;;19.39;73.20;100425.44;4993677;28;1462;-86
2021/10/13 04:26:10;;;;;;;;;;;;;;;19.39;73.65;100441.53;4995815;28;1455;-85
2021/10/13 04:28:37;;;;;;;;;;;;;;;19.35;73.12;100440.13;4995455;28;1587;-88
2021/10/13 04:31:11;;;;;;;;;;;;;;;19.34;72.92;100435.78;4991141;28;1639;-88
2021/10/13 04:33:38;;;;;;;;;;;;;;;19.33;73.75;100447.47;4991245;28;1674;-85
2021/10/13 04:36:05;;;;;;;;;;;;;;;19.30;73.38;100426.34;4981690;28;1915;-86
2021/10/13 04:38:32;;;;;;;;;;;;;;;19.35;72.68;100448.19;4986606;28;1735;-86
2021/10/13 04:40:58;;;;;;;;;;;;;;;19.32;73.05;100434.22;4990428;28;1554;-86
2021/10/13 04:43:25;;;;;;;;;;;;;;;19.32;73.87;100445.81;4988268;28;1378;-85
2021/10/13 04:45:51;;;;;;;;;;;;;;;19.31;73.68;100454.00;4995466;28;1480;-86
2021/10/13 04:48:19;;;;;;;;;;;;;;;19.32;73.25;100456.53;4991741;28;1653;-86
2021/10/13 04:50:47;;;;;;;;;;;;;;;19.28;73.29;100455.13;4996027;28;1382;-86
2021/10/13 04:53:16;;;;;;;;;;;;;;;19.25;73.10;100456.25;4990953;28;1624;-86
2021/10/13 04:55:42;;;;;;;;;;;;;;;19.25;74.11;100448.19;4982863;28;1902;-85
2021/10/13 04:58:09;;;;;;;;;;;;;;;19.25;73.56;100464.28;4987344;28;1615;-87
2021/10/13 05:00:35;;;;;;;;;;;;;;;19.25;72.81;100466.13;4991715;28;1433;-86
2021/10/13 05:03:02;;;;;;;;;;;;;;;19.24;73.04;100469.81;4984739;28;1391;-87
2021/10/13 05:05:31;;;;;;;;;;;;;;;19.23;73.12;100482.34;4982475;28;1167;-86
2021/10/13 05:07:57;;;;;;;;;;;;;;;19.21;73.87;100475.44;4982083;28;1747;-87
2021/10/13 05:10:24;;;;;;;;;;;;;;;19.24;73.45;100485.91;4988423;28;1366;-87
2021/10/13 05:12:50;;;;;;;;;;;;;;;19.08;73.62;100481.97;4999190;28;1516;-86
2021/10/13 05:15:17;;;;;;;;;;;;;;;19.15;73.90;100503.66;4993462;28;1957;-85
2021/10/13 05:17:43;;;;;;;;;;;;;;;19.18;72.88;100491.81;4991428;28;1440;-87
2021/10/13 05:20:10;;;;;;;;;;;;;;;19.18;73.85;100497.16;5011101;28;1255;-85
2021/10/13 05:22:38;;;;;;;;;;;;;;;19.19;73.72;100506.91;4993759;28;1369;-87
2021/10/13 05:25:05;;;;;;;;;;;;;;;19.17;73.48;100508.91;4996786;28;1438;-86
2021/10/13 05:27:31;;;;;;;;;;;;;;;19.10;72.90;100513.13;4992269;28;1640;-86
2021/10/13 05:29:58;;;;;;;;;;;;;;;19.19;71.48;100504.25;4990306;28;1300;-88
2021/10/13 05:32:24;;;;;;;;;;;;;;;19.23;71.44;100519.03;4985976;28;1408;-89
2021/10/13 05:34:51;;;;;;;;;;;;;;;19.25;72.59;100528.63;4991101;28;1563;-86
2021/10/13 05:37:17;;;;;;;;;;;;;;;19.18;72.50;100523.97;4995099;28;1902;-86
2021/10/13 05:39:45;;;;;;;;;;;;;;;19.18;71.71;100532.88;4991274;28;1247;-86
2021/10/13 05:42:12;;;;;;;;;;;;;;;19.20;71.77;100535.41;4994579;28;1430;-85
2021/10/13 05:44:38;;;;;;;;;;;;;;;19.17;72.02;100528.50;4997796;28;1430;-85
2021/10/13 05:47:05;;;;;;;;;;;;;;;19.13;73.09;100534.28;4994724;28;1369;-86
2021/10/13 05:49:32;;;;;;;;;;;;;;;19.07;72.34;100539.22;4994787;28;1546;-87
2021/10/13 05:51:59;;;;;;;;;;;;;;;19.07;73.66;100539.22;4993171;28;1257;-87
2021/10/13 05:54:25;;;;;;;;;;;;;;;19.04;72.69;100533.31;4997287;28;1291;-86
2021/10/13 05:56:53;;;;;;;;;;;;;;;19.06;73.67;100552.78;4988389;28;1978;-86
2021/10/13 05:59:19;;;;;;;;;;;;;;;19.02;73.18;100546.00;4984365;28;1779;-86
2021/10/13 06:01:47;;;;;;;;;;;;;;;18.99;73.06;100551.66;4989115;28;1801;-86
2021/10/13 06:04:13;;;;;;;;;;;;;;;18.96;73.11;100562.63;4986683;28;1386;-87
2021/10/13 06:06:40;;;;;;;;;;;;;;;18.99;72.71;100539.09;4993548;28;1556;-86
2021/10/13 06:09:06;;;;;;;;;;;;;;;18.97;72.65;100548.25;4992658;28;1600;-86
2021/10/13 06:11:33;;;;;;;;;;;;;;;18.95;72.95;100556.44;4987879;28;1578;-86
2021/10/13 06:14:02;;;;;;;;;;;;;;;18.94;73.50;100560.13;4990455;28;1613;-86
2021/10/13 06:16:28;;;;;;;;;;;;;;;18.94;72.22;100559.25;4988042;28;1887;-86
2021/10/13 06:18:57;;;;;;;;;;;;;;;18.93;73.10;100563.75;4984692;28;1707;-85
2021/10/13 06:21:24;;;;;;;;;;;;;;;18.91;73.19;100581.81;4995771;28;1487;-86
2021/10/13 06:24:00;;;;;;;;;;;;;;;18.91;72.49;100578.28;4986075;28;1442;-86
2021/10/13 06:26:38;;;;;;;;;;;;;;;18.95;72.58;100579.72;4994666;28;1112;-86
2021/10/13 06:29:17;;;;;;;;;;;;;;;18.93;73.00;100573.66;4985150;28;1108;-86
2021/10/13 06:31:51;;;;;;;;;;;;;;;18.91;72.49;100572.94;4994466;28;1492;-88
2021/10/13 06:34:28;;;;;;;;;;;;;;;18.98;73.07;100577.59;4991650;28;1739;-87
2021/10/13 06:37:01;;;;;;;;;;;;;;;19.03;72.78;100569.97;4993398;28;1934;-87
2021/10/13 06:39:37;;;;;;;;;;;;;;;19.38;71.81;100573.94;4990577;28;1457;-87
2021/10/13 06:42:04;;;;;;;;;;;;;;;19.94;70.27;100587.53;4996387;28;1140;-87
2021/10/13 06:44:38;;;;;;;;;;;;;;;19.77;70.41;100589.13;4995845;28;1394;-86
2021/10/13 06:47:17;;;;;;;;;;;;;;;20.06;70.47;100589.06;4987828;28;2117;-86
2021/10/13 06:49:44;;;;;;;;;;;;;;;20.44;68.50;100604.16;4984654;28;1225;-87
2021/10/13 06:52:10;;;;;;;;;;;;;;;20.65;67.76;100603.06;4980613;28;1695;-86
2021/10/13 06:54:46;;;;;;;;;;;;;;;20.61;68.37;100602.56;4965860;28;1723;-87
2021/10/13 06:57:23;;;;;;;;;;;;;;;20.98;67.71;100622.25;4995418;28;1973;-86
2021/10/13 06:59:49;;;;;;;;;;;;;;;20.45;69.55;100626.47;4981138;28;1464;-87
2021/10/13 07:02:17;;;;;;;;;;;;;;;20.15;70.68;100636.47;4983107;28;1043;-86
2021/10/13 07:04:44;;;;;;;;;;;;;;;19.92;70.27;100614.53;4997605;28;1947;-86
2021/10/13 07:07:10;;;;;;;;;;;;;;;19.71;70.78;100636.16;4986588;28;1477;-86
2021/10/13 07:09:37;;;;;;;;;;;;;;;19.60;72.21;100636.31;4985484;28;1023;-86
2021/10/13 07:12:04;;;;;;;;;;;;;;;20.04;69.82;100639.34;4981800;28;1576;-85
2021/10/13 07:14:30;;;;;;;;;;;;;;;20.53;68.76;100629.28;4985658;28;1600;-88
2021/10/13 07:16:57;;;;;;;;;;;;;;;20.77;67.99;100641.31;4995677;28;1914;-87
2021/10/13 07:19:25;;;;;;;;;;;;;;;20.56;68.63;100631.66;4995774;28;1615;-85
2021/10/13 07:21:51;;;;;;;;;;;;;;;20.37;70.00;100648.72;4990343;28;1389;-86
2021/10/13 07:24:18;;;;;;;;;;;;;;;20.02;70.74;100657.44;4991966;28;1726;-89
2021/10/13 07:26:45;;;;;;;;;;;;;;;20.08;69.44;100635.38;4991765;28;1596;-84
2021/10/13 07:29:12;;;;;;;;;;;;;;;20.43;69.25;100652.63;4994028;28;1811;-86
2021/10/13 07:31:38;;;;;;;;;;;;;;;20.73;67.66;100639.94;4988459;28;1374;-86
2021/10/13 07:34:05;;;;;;;;;;;;;;;20.43;69.68;100655.31;4983012;28;1559;-87
2021/10/13 07:36:33;;;;;;;;;;;;;;;19.99;70.38;100638.94;4994873;28;1967;-87
2021/10/13 07:39:00;;;;;;;;;;;;;;;19.76;70.21;100647.31;4996120;28;1247;-87
2021/10/13 07:41:28;;;;;;;;;;;;;;;20.02;70.56;100639.50;4989064;28;1614;-86
2021/10/13 07:43:54;;;;;;;;;;;;;;;20.50;69.47;100645.69;4984394;28;1751;-88
2021/10/13 07:46:23;;;;;;;;;;;;;;;20.70;69.10;100654.53;4990161;28;1217;-87
2021/10/13 07:48:49;;;;;;;;;;;;;;;20.25;70.99;100655.25;4994193;28;1446;-85
2021/10/13 07:51:22;;;;;;;;;;;;;;;20.05;70.99;100651.78;5010142;28;1495;-88
2021/10/13 07:53:50;;;;;;;;;;;;;;;20.00;71.30;100654.91;4998733;28;1554;-87
2021/10/13 07:56:22;;;;;;;;;;;;;;;20.25;70.80;100653.44;5005874;28;1910;-86
2021/10/13 07:58:49;;;;;;;;;;;;;;;20.58;69.64;100643.09;5009799;28;1414;-87
2021/10/13 08:01:26;;;;;;;;;;;;;;;20.81;69.72;100659.72;4992141;28;1634;-87
2021/10/13 08:03:54;;;;;;;;;;;;;;;20.29;69.18;100655.81;4997990;28;1595;-86
2021/10/13 08:06:22;;;;;;;;;;;;;;;20.02;71.29;100668.19;4986088;28;1159;-87
2021/10/13 08:08:50;;;;;;;;;;;;;;;20.07;71.11;100663.22;4991890;28;1376;-87
2021/10/13 08:11:16;;;;;;;;;;;;;;;20.40;70.67;100664.53;4995356;28;1481;-86
2021/10/13 08:13:43;;;;;;;;;;;;;;;20.39;70.65;100662.84;4990132;28;1603;-85
2021/10/13 08:16:09;;;;;;;;;;;;;;;20.53;68.64;100661.53;4996106;28;1918;-87
2021/10/13 08:18:38;;;;;;;;;;;;;;;20.71;68.63;100679.56;4989275;28;1548;-86
2021/10/13 08:21:05;;;;;;;;;;;;;;;20.73;68.02;100662.31;4992560;28;1146;-85
2021/10/13 08:23:37;;;;;;;;;;;;;;;20.69;68.57;100666.28;4992488;28;1755;-88
2021/10/13 08:26:05;;;;;;;;;;;;;;;20.79;68.11;100666.22;4994780;28;1532;-87
2021/10/13 08:28:32;;;;;;;;;;;;;;;20.25;69.89;100664.16;4995087;28;1039;-87
2021/10/13 08:31:24;;;;;;;;;;;;;;;20.05;70.51;100662.50;4997401;28;1869;-87
2021/10/13 08:33:52;;;;;;;;;;;;;;;19.98;69.95;100670.31;4990551;28;1556;-86
2021/10/13 08:36:18;;;;;;;;;;;;;;;20.24;69.82;100662.47;4985891;28;1898;-87
2021/10/13 08:38:45;;;;;;;;;;;;;;;20.47;69.03;100662.09;4982527;28;1254;-86
2021/10/13 08:41:13;;;;;;;;;;;;;;;20.66;68.09;100664.72;4989438;28;1723;-87
2021/10/13 08:43:42;;;;;;;;;;;;;;;20.68;68.44;100666.44;4986633;28;1829;-87
2021/10/13 08:46:11;;;;;;;;;;;;;;;20.40;69.78;100652.94;4999945;28;1532;-86
2021/10/13 08:48:37;;;;;;;;;;;;;;;20.14;70.18;100668.88;4994563;28;1600;-86
2021/10/13 08:51:04;;;;;;;;;;;;;;;19.99;70.07;100668.47;4994042;28;1596;-88
2021/10/13 08:53:30;;;;;;;;;;;;;;;20.22;70.06;100659.06;4992095;28;1380;-87
2021/10/13 08:55:57;;;;;;;;;;;;;;;20.43;69.79;100666.06;4991374;28;1408;-86
2021/10/13 08:58:26;;;;;;;;;;;;;;;20.50;69.20;100671.72;4990347;28;1950;-88
2021/10/13 09:01:08;;;;;;;;;;;;;;;20.68;67.91;100674.50;4991935;28;1428;-91
2021/10/13 09:03:35;;;;;;;;;;;;;;;20.32;69.53;100679.69;4994521;28;1758;-87
2021/10/13 09:06:13;;;;;;;;;;;;;;;20.06;70.62;100678.47;4980815;28;1463;-86
2021/10/13 09:08:59;;;;;;;;;;;;;;;20.13;70.20;100670.69;4995594;28;1244;-86
2021/10/13 09:11:40;;;;;;;;;;;;;;;20.55;68.69;100664.91;4998159;28;1651;-86
2021/10/13 09:14:09;;;;;;;;;;;;;;;20.76;68.06;100671.91;4996474;28;1649;-88
2021/10/13 09:16:55;;;;;;;;;;;;;;;20.50;68.65;100672.56;4987282;28;1952;-86
2021/10/13 09:19:23;;;;;;;;;;;;;;;20.31;70.48;100678.81;4982158;28;1852;-88
2021/10/13 09:21:50;;;;;;;;;;;;;;;20.19;70.04;100675.50;4997522;28;1580;-87
2021/10/13 09:24:19;;;;;;;;;;;;;;;20.51;68.85;100676.91;4995262;28;1613;-86
2021/10/13 09:26:47;;;;;;;;;;;;;;;20.60;68.31;100668.00;4998369;28;1274;-87
2021/10/13 09:29:15;;;;;;;;;;;;;;;20.71;68.48;100668.81;4998663;28;1295;-86
2021/10/13 09:31:42;;;;;;;;;;;;;;;20.52;68.95;100675.94;4993369;28;1385;-89
2021/10/13 09:34:10;;;;;;;;;;;;;;;20.35;70.20;100663.28;4992320;28;1727;-88
2021/10/13 09:36:38;;;;;;;;;;;;;;;20.35;70.33;100679.38;4982220;28;1902;-88
2021/10/13 09:39:12;;;;;;;;;;;;;;;20.70;69.34;100688.63;4990204;28;1429;-85
2021/10/13 09:41:59;;;;;;;;;;;;;;;20.84;68.25;100672.84;4984535;28;1250;-84
2021/10/13 09:44:27;;;;;;;;;;;;;;;20.59;69.22;100670.84;4982249;28;998;-85
2021/10/13 09:46:57;;;;;;;;;;;;;;;20.40;70.91;100682.50;4988337;28;1676;-85
2021/10/13 09:49:29;;;;;;;;;;;;;;;20.30;70.72;100684.38;4984662;28;1676;-86
2021/10/13 09:52:09;;;;;;;;;;;;;;;20.39;71.19;100686.16;4981536;28;1714;-85
2021/10/13 09:54:37;;;;;;;;;;;;;;;20.64;70.19;100682.84;4987254;28;1436;-86
2021/10/13 09:57:20;;;;;;;;;;;;;;;20.80;70.37;100684.03;4988639;28;1977;-88
2021/10/13 10:00:05;;;;;;;;;;;;;;;20.60;70.88;100673.38;4998266;28;1556;-86
2021/10/13 10:02:33;;;;;;;;;;;;;;;20.38;71.10;100676.41;4999146;28;1458;-85
2021/10/13 10:05:04;;;;;;;;;;;;;;;20.30;71.21;100681.69;4982616;28;1019;-85
2021/10/13 10:07:31;;;;;;;;;;;;;;;20.33;71.72;100670.63;4994329;28;1833;-88
2021/10/13 10:10:12;;;;;;;;;;;;;;;20.65;70.34;100681.84;4987023;28;1662;-87
2021/10/13 10:12:57;;;;;;;;;;;;;;;20.64;71.05;100677.47;4993525;28;1502;-86
2021/10/13 10:15:30;;;;;;;;;;;;;;;20.60;71.36;100684.13;4985942;28;1793;-87
2021/10/13 10:17:57;;;;;;;;;;;;;;;20.46;71.70;100679.22;4985354;28;1977;-87
2021/10/13 10:20:33;;;;;;;;;;;;;;;20.34;70.85;100680.41;4990149;28;1100;-86
2021/10/13 10:22:59;;;;;;;;;;;;;;;20.35;71.95;100663.28;4989817;28;1602;-85
2021/10/13 10:25:34;;;;;;;;;;;;;;;20.38;70.36;100663.00;4985575;28;1389;-86
2021/10/13 10:28:01;;;;;;;;;;;;;;;20.21;70.52;100665.47;4997436;28;1409;-84
2021/10/13 10:30:34;;;;;;;;;;;;;;;20.25;71.29;100679.41;5009632;28;1434;-86
2021/10/13 10:33:17;;;;;;;;;;;;;;;20.45;70.30;100677.50;4996013;28;1463;-85
2021/10/13 10:35:46;;;;;;;;;;;;;;;20.45;70.20;100682.88;4992808;28;1061;-85
2021/10/13 10:38:18;;;;;;;;;;;;;;;20.65;70.16;100671.09;4993531;28;1918;-85
2021/10/13 10:40:44;;;;;;;;;;;;;;;20.44;71.23;100678.50;4987875;28;1488;-85
2021/10/13 10:43:20;;;;;;;;;;;;;;;20.83;69.86;100681.03;4997471;28;1429;-86
2021/10/13 10:45:51;;;;;;;;;;;;;;;20.82;69.24;100672.13;4992395;28;1633;-87
2021/10/13 10:48:46;;;;;;;;;;;;;;;20.73;69.57;100666.81;4994130;28;1611;-86
2021/10/13 10:51:16;;;;;;;;;;;;;;;20.41;71.14;100676.09;5006295;28;1093;-85
2021/10/13 10:53:46;;;;;;;;;;;;;;;20.24;72.02;100662.47;5007662;28;1086;-87
2021/10/13 10:56:17;;;;;;;;;;;;;;;20.43;70.94;100668.75;5001858;28;1526;-86
2021/10/13 10:59:02;;;;;;;;;;;;;;;20.85;70.30;100682.59;5002497;28;1890;-85
2021/10/13 11:01:31;;;;;;;;;;;;;;;20.64;71.06;100664.03;5001839;28;1464;-86
2021/10/13 11:04:11;;;;;;;;;;;;;;;20.63;69.65;100674.91;5009403;28;1482;-86
2021/10/13 11:06:43;;;;;;;;;;;;;;;20.23;71.35;100670.66;5005485;28;1648;-85
2021/10/13 11:09:16;;;;;;;;;;;;;;;20.16;71.89;100664.19;4990706;28;1536;-87
2021/10/13 11:11:45;;;;;;;;;;;;;;;20.43;70.60;100666.06;5000832;28;1744;-85
2021/10/13 11:14:24;;;;;;;;;;;;;;;20.34;71.92;100691.97;4998600;28;1506;-84
2021/10/13 11:16:55;;;;;;;;;;;;;;;20.43;71.60;100693.78;4989399;28;1906;-86
2021/10/13 11:19:23;;;;;;;;;;;;;;;20.50;70.93;100691.34;4991964;28;1275;-87
2021/10/13 11:22:01;;;;;;;;;;;;;;;20.55;71.80;100696.28;5005714;28;1203;-88
2021/10/13 11:24:37;;;;;;;;;;;;;;;20.45;71.48;100686.44;5008750;28;1194;-86
2021/10/13 11:27:06;;;;;;;;;;;;;;;20.45;72.10;100696.31;4998171;28;1426;-85
2021/10/13 11:29:35;;;;;;;;;;;;;;;20.46;71.62;100695.31;4991986;28;1486;-86
2021/10/13 11:32:10;;;;;;;;;;;;;;;20.45;71.07;100685.56;4993049;28;1228;-85
2021/10/13 11:34:40;;;;;;;;;;;;;;;20.45;71.15;100682.88;5000013;28;1075;-85
2021/10/13 11:37:07;;;;;;;;;;;;;;;20.42;72.27;100693.94;4998220;28;1949;-87
2021/10/13 11:39:35;;;;;;;;;;;;;;;20.52;71.37;100686.69;5007494;28;1104;-85
2021/10/13 11:42:02;;;;;;;;;;;;;;;20.59;71.44;100703.94;5012100;28;1604;-85
2021/10/13 11:44:32;;;;;;;;;;;;;;;20.54;71.18;100695.44;5002716;28;979;-85
2021/10/13 11:47:04;;;;;;;;;;;;;;;20.62;70.29;100697.41;4995988;28;1306;-85
2021/10/13 11:49:49;;;;;;;;;;;;;;;20.60;70.25;100686.81;5000982;28;1653;-85
2021/10/13 11:52:19;;;;;;;;;;;;;;;20.68;69.56;100696.81;4996469;28;1371;-86
2021/10/13 11:54:56;;;;;;;;;;;;;;;20.39;71.09;100694.22;5009125;28;1358;-85
2021/10/13 11:57:24;;;;;;;;;;;;;;;20.31;70.59;100699.47;4998516;28;1981;-86
2021/10/13 12:00:07;;;;;;;;;;;;;;;20.50;70.36;100688.66;4999823;28;1478;-87
2021/10/13 12:02:34;;;;;;;;;;;;;;;20.56;70.64;100697.97;5000014;28;1371;-86
2021/10/13 12:05:04;;;;;;;;;;;;;;;20.48;70.62;100698.72;5002734;28;1070;-85
2021/10/13 12:07:30;;;;;;;;;;;;;;;20.26;70.32;100686.50;4997621;28;1396;-87
2021/10/13 12:10:02;;;;;;;;;;;;;;;20.07;71.63;100698.09;5004395;28;1254;-86
2021/10/13 12:12:29;;;;;;;;;;;;;;;20.29;70.95;100680.81;4997441;28;1659;-85
2021/10/13 12:14:57;;;;;;;;;;;;;;;20.34;70.69;100699.19;5000612;28;1484;-86
2021/10/13 12:17:32;;;;;;;;;;;;;;;20.13;71.47;100688.63;5002066;28;2041;-87
2021/10/13 12:20:02;;;;;;;;;;;;;;;20.09;70.55;100685.38;5001742;28;1524;-85
2021/10/13 12:22:44;;;;;;;;;;;;;;;20.04;72.01;100701.09;4993451;28;1857;-85
2021/10/13 12:25:23;;;;;;;;;;;;;;;20.21;70.88;100708.41;4984976;28;1482;-86
2021/10/13 12:27:53;;;;;;;;;;;;;;;20.33;70.40;100706.38;4996833;28;1376;-86
2021/10/13 12:30:29;;;;;;;;;;;;;;;20.44;70.98;100716.13;4998649;28;1639;-86
2021/10/13 12:33:01;;;;;;;;;;;;;;;20.19;70.96;100710.41;5003449;28;1456;-87
2021/10/13 12:35:35;;;;;;;;;;;;;;;20.31;71.13;100704.84;4986689;28;1499;-87
2021/10/13 12:38:12;;;;;;;;;;;;;;;20.42;70.61;100702.00;5001008;28;2005;-86
2021/10/13 12:41:00;;;;;;;;;;;;;;;20.48;70.35;100711.31;5000657;28;1492;-85
2021/10/13 12:43:29;;;;;;;;;;;;;;;20.29;70.38;100709.50;5003419;28;1604;-86
2021/10/13 12:46:10;;;;;;;;;;;;;;;20.34;71.03;100699.19;4997080;28;1642;-85
2021/10/13 12:48:41;;;;;;;;;;;;;;;20.57;69.80;100716.66;4990933;28;1714;-86
2021/10/13 12:51:09;;;;;;;;;;;;;;;20.58;70.17;100704.88;4981046;28;1470;-86
2021/10/13 12:53:36;;;;;;;;;;;;;;;20.58;69.73;100714.81;4989968;28;1718;-87
2021/10/13 12:56:04;;;;;;;;;;;;;;;20.50;69.82;100723.59;5000731;28;1405;-85
2021/10/13 12:58:34;;;;;;;;;;;;;;;20.36;69.95;100714.16;5000376;28;1991;-86
2021/10/13 13:01:02;;;;;;;;;;;;;;;20.31;71.04;100731.69;5001543;28;1663;-86
2021/10/13 13:03:28;;;;;;;;;;;;;;;20.25;70.94;100727.75;4999527;28;1462;-86
2021/10/13 13:05:55;;;;;;;;;;;;;;;20.64;69.57;100719.63;5000790;28;1252;-85
2021/10/13 13:08:23;;;;;;;;;;;;;;;20.60;70.42;100719.06;4998153;28;1535;-85
2021/10/13 13:10:49;;;;;;;;;;;;;;;20.49;70.28;100729.94;5006492;28;1489;-86